createdAt,value
2023-05-12T00:00:00.257Z,2
2023-05-12T00:05:00.464Z,2
2023-05-12T00:10:00.347Z,1
2023-05-12T00:15:00.303Z,2
2023-05-12T00:20:00.269Z,4
2023-05-12T00:25:00.299Z,4
2023-05-12T00:30:00.287Z,4
2023-05-12T00:35:00.297Z,2
2023-05-12T00:40:00.285Z,3
2023-05-12T00:45:00.284Z,2
2023-05-12T00:50:00.293Z,1
2023-05-12T00:55:00.331Z,1
2023-05-12T01:00:00.259Z,1
2023-05-12T01:05:00.294Z,0
2023-05-12T01:10:00.307Z,0
2023-05-12T01:15:00.365Z,0
2023-05-12T01:20:00.334Z,0
2023-05-12T01:25:00.289Z,0
2023-05-12T01:30:00.350Z,0
2023-05-12T01:35:00.294Z,0
2023-05-12T01:40:00.301Z,1
2023-05-12T01:45:00.298Z,1
2023-05-12T01:50:00.281Z,1
2023-05-12T01:55:00.296Z,1
2023-05-12T02:00:00.296Z,0
2023-05-12T02:05:00.290Z,0
2023-05-12T02:10:00.342Z,1
2023-05-12T02:15:00.298Z,1
2023-05-12T02:20:00.291Z,1
2023-05-12T02:25:00.257Z,1
2023-05-12T02:30:00.289Z,1
2023-05-12T02:35:00.285Z,2
2023-05-12T02:40:00.431Z,2
2023-05-12T02:45:00.312Z,1
2023-05-12T02:50:00.301Z,1
2023-05-12T02:55:00.296Z,1
2023-05-12T03:00:00.252Z,1
2023-05-12T03:05:00.297Z,1
2023-05-12T03:10:00.295Z,2
2023-05-12T03:15:00.297Z,1
2023-05-12T03:20:00.257Z,1
2023-05-12T03:25:00.292Z,1
2023-05-12T03:30:00.297Z,1
2023-05-12T03:35:00.256Z,1
2023-05-12T03:40:00.324Z,1
2023-05-12T03:45:00.299Z,1
2023-05-12T03:50:00.287Z,1
2023-05-12T03:55:00.263Z,1
2023-05-12T04:00:00.313Z,1
2023-05-12T04:05:00.276Z,1
2023-05-12T04:10:00.293Z,2
2023-05-12T04:15:00.352Z,2
2023-05-12T04:20:00.305Z,2
2023-05-12T04:25:00.356Z,2
2023-05-12T04:30:00.323Z,3
2023-05-12T04:35:00.343Z,3
2023-05-12T04:40:00.279Z,2
2023-05-12T04:45:00.467Z,3
2023-05-12T04:50:00.289Z,2
2023-05-12T04:55:00.289Z,3
2023-05-12T05:00:00.302Z,2
2023-05-12T05:05:00.303Z,1
2023-05-12T05:10:00.319Z,2
2023-05-12T05:15:00.292Z,2
2023-05-12T05:20:00.397Z,2
2023-05-12T05:25:00.304Z,3
2023-05-12T05:30:00.336Z,2
2023-05-12T05:35:00.281Z,3
2023-05-12T05:40:00.447Z,2
2023-05-12T05:45:00.383Z,1
2023-05-12T05:50:00.466Z,2
2023-05-12T05:55:00.272Z,2
2023-05-12T06:00:00.361Z,2
2023-05-12T06:05:00.369Z,4
2023-05-12T06:10:00.277Z,3
2023-05-12T06:15:00.310Z,4
2023-05-12T06:20:00.276Z,3
2023-05-12T06:25:00.314Z,3
2023-05-12T06:30:00.295Z,3
2023-05-12T06:35:00.315Z,3
2023-05-12T06:40:00.282Z,3
2023-05-12T06:45:00.382Z,3
2023-05-12T06:50:00.332Z,3
2023-05-12T06:55:00.277Z,3
2023-05-12T07:00:00.374Z,4
2023-05-12T07:05:00.263Z,5
2023-05-12T07:10:00.346Z,3
2023-05-12T07:15:00.321Z,4
2023-05-12T07:20:00.351Z,4
2023-05-12T07:25:00.355Z,4
2023-05-12T07:30:00.421Z,4
2023-05-12T07:35:00.478Z,4
2023-05-12T07:40:00.314Z,5
2023-05-12T07:45:00.254Z,4
2023-05-12T07:50:00.357Z,5
2023-05-12T07:55:00.315Z,5
2023-05-12T08:00:00.294Z,3
2023-05-12T08:05:00.304Z,6
2023-05-12T08:10:00.254Z,3
2023-05-12T08:15:00.282Z,4
2023-05-12T08:20:00.295Z,5
2023-05-12T08:25:00.726Z,5
2023-05-12T08:30:00.425Z,4
2023-05-12T08:35:00.275Z,6
2023-05-12T08:40:00.368Z,4
2023-05-12T08:45:00.321Z,4
2023-05-12T08:50:00.361Z,4
2023-05-12T08:55:00.991Z,5
2023-05-12T09:00:00.430Z,2
2023-05-12T09:05:00.387Z,5
2023-05-12T09:10:00.282Z,6
2023-05-12T09:15:00.293Z,5
2023-05-12T09:20:00.288Z,4
2023-05-12T09:25:00.342Z,6
2023-05-12T09:30:00.298Z,5
2023-05-12T09:35:00.381Z,3
2023-05-12T09:40:00.278Z,6
2023-05-12T09:45:00.307Z,7
2023-05-12T09:50:00.266Z,6
2023-05-12T09:55:00.313Z,5
2023-05-12T10:00:00.302Z,4
2023-05-12T10:05:00.444Z,6
2023-05-12T10:10:00.257Z,8
2023-05-12T10:15:00.317Z,6
2023-05-12T10:20:00.335Z,5
2023-05-12T10:25:00.262Z,5
2023-05-12T10:30:00.357Z,6
2023-05-12T10:35:01.532Z,4
2023-05-12T10:40:00.253Z,4
2023-05-12T10:45:00.310Z,4
2023-05-12T10:50:00.247Z,4
2023-05-12T10:55:00.321Z,4
2023-05-12T11:00:00.947Z,4
2023-05-12T11:05:00.494Z,5
2023-05-12T11:10:01.383Z,5
2023-05-12T11:15:00.305Z,4
2023-05-12T11:20:00.375Z,5
2023-05-12T11:25:00.333Z,3
2023-05-12T11:30:00.372Z,5
2023-05-12T11:35:00.310Z,4
2023-05-12T11:40:00.262Z,6
2023-05-12T11:45:00.384Z,6
2023-05-12T11:50:00.328Z,5
2023-05-12T11:55:00.393Z,7
2023-05-12T12:00:00.703Z,6
2023-05-12T12:05:00.391Z,4
2023-05-12T12:10:00.300Z,5
2023-05-12T12:15:00.391Z,3
2023-05-12T12:20:00.284Z,4
2023-05-12T12:25:00.317Z,6
2023-05-12T12:30:00.281Z,4
2023-05-12T12:35:00.310Z,4
2023-05-12T12:40:00.282Z,5
2023-05-12T12:45:00.364Z,3
2023-05-12T12:50:00.293Z,5
2023-05-12T12:55:00.310Z,4
2023-05-12T13:00:00.344Z,5
2023-05-12T13:05:00.272Z,5
2023-05-12T13:10:00.327Z,3
2023-05-12T13:15:00.490Z,5
2023-05-12T13:20:00.282Z,3
2023-05-12T13:25:00.322Z,3
2023-05-12T13:30:00.393Z,5
2023-05-12T13:35:00.397Z,4
2023-05-12T13:40:00.388Z,6
2023-05-12T13:45:00.338Z,5
2023-05-12T13:50:00.385Z,5
2023-05-12T13:55:00.310Z,5
2023-05-12T14:00:00.299Z,5
2023-05-12T14:05:00.388Z,5
2023-05-12T14:10:00.280Z,5
2023-05-12T14:15:12.228Z,5
2023-05-12T14:20:00.324Z,5
2023-05-12T14:25:00.261Z,5
2023-05-12T14:30:00.408Z,5
2023-05-12T14:35:00.264Z,4
2023-05-12T14:40:00.374Z,3
2023-05-12T14:45:00.347Z,2
2023-05-12T14:50:00.349Z,3
2023-05-12T14:55:00.367Z,3
2023-05-12T15:00:00.339Z,4
2023-05-12T15:05:00.263Z,5
2023-05-12T15:10:00.378Z,4
2023-05-12T15:15:00.305Z,4
2023-05-12T15:20:00.395Z,5
2023-05-12T15:25:00.289Z,5
2023-05-12T15:30:00.418Z,6
2023-05-12T15:35:00.322Z,4
2023-05-12T15:40:00.678Z,4
2023-05-12T15:45:00.375Z,3
2023-05-12T15:50:00.324Z,4
2023-05-12T15:55:00.316Z,5
2023-05-12T16:00:00.362Z,3
2023-05-12T16:05:00.299Z,2
2023-05-12T16:10:00.322Z,3
2023-05-12T16:15:00.321Z,3
2023-05-12T16:20:00.497Z,4
2023-05-12T16:25:00.313Z,4
2023-05-12T16:30:00.376Z,4
2023-05-12T16:35:00.293Z,4
2023-05-12T16:40:00.425Z,3
2023-05-12T16:45:00.340Z,5
2023-05-12T16:50:00.429Z,4
2023-05-12T16:55:01.421Z,5
2023-05-12T17:00:00.279Z,3
2023-05-12T17:05:00.301Z,4
2023-05-12T17:10:00.356Z,3
2023-05-12T17:15:07.300Z,5
2023-05-12T17:20:01.021Z,6
2023-05-12T17:25:00.301Z,5
2023-05-12T17:30:00.273Z,5
2023-05-12T17:35:00.312Z,5
2023-05-12T17:40:00.339Z,4
2023-05-12T17:45:00.301Z,4
2023-05-12T17:50:00.377Z,4
2023-05-12T17:55:00.319Z,4
2023-05-12T18:00:00.350Z,5
2023-05-12T18:05:00.349Z,4
2023-05-12T18:10:00.354Z,4
2023-05-12T18:15:00.367Z,3
2023-05-12T18:20:00.361Z,4
2023-05-12T18:25:00.524Z,4
2023-05-12T18:30:00.294Z,2
2023-05-12T18:35:00.316Z,3
2023-05-12T18:40:00.364Z,3
2023-05-12T18:45:00.300Z,2
2023-05-12T18:50:00.261Z,2
2023-05-12T18:55:00.302Z,1
2023-05-12T19:00:00.320Z,3
2023-05-12T19:05:00.388Z,2
2023-05-12T19:10:00.321Z,3
2023-05-12T19:15:00.324Z,2
2023-05-12T19:20:00.401Z,2
2023-05-12T19:25:00.267Z,1
2023-05-12T19:30:00.294Z,1
2023-05-12T19:35:00.276Z,2
2023-05-12T19:40:00.305Z,2
2023-05-12T19:45:00.313Z,2
2023-05-12T19:50:00.335Z,2
2023-05-12T19:55:00.258Z,1
2023-05-12T20:00:00.303Z,1
2023-05-12T20:05:00.318Z,3
2023-05-12T20:10:00.320Z,2
2023-05-12T20:15:00.275Z,2
2023-05-12T20:20:00.297Z,2
2023-05-12T20:25:00.256Z,2
2023-05-12T20:30:00.400Z,1
2023-05-12T20:35:00.359Z,1
2023-05-12T20:40:00.309Z,2
2023-05-12T20:45:00.292Z,2
2023-05-12T20:50:00.288Z,2
2023-05-12T20:55:00.266Z,2
2023-05-12T21:00:00.319Z,3
2023-05-12T21:05:00.264Z,2
2023-05-12T21:10:00.640Z,2
2023-05-12T21:15:00.313Z,2
2023-05-12T21:20:00.318Z,3
2023-05-12T21:25:00.253Z,2
2023-05-12T21:30:00.327Z,3
2023-05-12T21:35:00.308Z,2
2023-05-12T21:40:00.350Z,3
2023-05-12T21:45:00.255Z,3
2023-05-12T21:50:00.317Z,3
2023-05-12T21:55:00.254Z,3
2023-05-12T22:00:00.296Z,3
2023-05-12T22:05:00.297Z,2
2023-05-12T22:10:00.312Z,2
2023-05-12T22:15:00.318Z,1
2023-05-12T22:20:00.305Z,1
2023-05-12T22:25:00.275Z,1
2023-05-12T22:30:00.266Z,1
2023-05-12T22:35:00.304Z,1
2023-05-12T22:40:00.294Z,1
2023-05-12T22:45:00.295Z,2
2023-05-12T22:50:00.308Z,1
2023-05-12T22:55:00.289Z,1
2023-05-12T23:00:00.311Z,1
2023-05-12T23:05:00.280Z,1
2023-05-12T23:10:00.285Z,1
2023-05-12T23:15:00.286Z,1
2023-05-12T23:20:00.296Z,1
2023-05-12T23:25:00.258Z,1
2023-05-12T23:30:00.292Z,1
2023-05-12T23:35:00.289Z,0
2023-05-12T23:40:00.391Z,1
2023-05-12T23:45:00.283Z,0
2023-05-12T23:50:00.288Z,0
2023-05-12T23:55:00.248Z,0
